createdAt,value
2022-08-09T00:01:01.812Z,3.03
2022-08-09T00:04:05.838Z,3.53
2022-08-09T00:06:18.272Z,4.40
2022-08-09T00:08:35.443Z,3.67
2022-08-09T00:11:05.784Z,3.93
2022-08-09T00:13:38.499Z,3.83
2022-08-09T00:16:12.824Z,4.25
2022-08-09T00:18:41.576Z,5.08
2022-08-09T00:21:12.010Z,3.95
2022-08-09T00:23:54.963Z,4.15
2022-08-09T00:26:14.865Z,3.03
2022-08-09T00:28:52.865Z,3.45
2022-08-09T00:31:56.845Z,3.30
2022-08-09T00:33:49.074Z,8.65
2022-08-09T00:36:19.211Z,3.55
2022-08-09T00:38:51.165Z,3.60
2022-08-09T00:44:11.448Z,2.63
2022-08-09T00:44:15.930Z,2.87
2022-08-09T00:46:55.226Z,3.62
2022-08-09T00:48:57.213Z,5.83
2022-08-09T00:51:28.804Z,3.30
2022-08-09T00:54:00.431Z,3.37
2022-08-09T00:56:31.911Z,2.57
2022-08-09T00:59:01.380Z,5.95
2022-08-09T01:01:44.721Z,4.37
2022-08-09T01:04:14.014Z,3.92
2022-08-09T01:06:55.816Z,6.03
2022-08-09T01:09:40.107Z,3.13
2022-08-09T01:12:29.573Z,3.97
2022-08-09T01:15:06.000Z,3.75
2022-08-09T01:17:48.125Z,6.10
2022-08-09T01:20:37.312Z,4.03
2022-08-09T01:24:03.012Z,4.00
2022-08-09T01:26:12.310Z,2.10
2022-08-09T01:28:47.329Z,6.30
2022-08-09T01:31:40.915Z,4.83
2022-08-09T01:33:54.855Z,7.13
2022-08-09T01:36:27.812Z,2.67
2022-08-09T01:38:59.788Z,5.03
2022-08-09T01:41:37.060Z,8.38
2022-08-09T01:44:11.367Z,7.47
2022-08-09T01:46:47.135Z,6.30
2022-08-09T01:49:20.935Z,5.10
2022-08-09T01:51:56.434Z,7.60
2022-08-09T01:54:35.037Z,4.43
2022-08-09T01:57:08.157Z,4.13
2022-08-09T01:59:51.570Z,3.80
2022-08-09T02:02:14.171Z,8.93
2022-08-09T02:04:45.530Z,5.40
2022-08-09T02:08:40.052Z,5.30
2022-08-09T02:09:59.334Z,5.23
2022-08-09T02:12:26.817Z,7.28
2022-08-09T02:14:59.004Z,7.22
2022-08-09T02:18:00.798Z,7.90
2022-08-09T02:20:03.366Z,6.20
2022-08-09T02:22:40.254Z,4.50
2022-08-09T02:25:26.144Z,5.30
2022-08-09T02:28:03.923Z,5.97
2022-08-09T02:30:34.813Z,6.47
2022-08-09T02:33:07.804Z,4.83
2022-08-09T02:36:03.074Z,5.77
2022-08-09T02:38:27.991Z,9.28
2022-08-09T02:40:46.429Z,5.43
2022-08-09T02:43:20.010Z,3.50
2022-08-09T02:45:53.177Z,4.93
2022-08-09T02:48:31.045Z,4.87
2022-08-09T02:50:57.874Z,5.53
2022-08-09T02:53:31.459Z,4.80
2022-08-09T02:56:05.205Z,5.37
2022-08-09T02:58:38.090Z,8.70
2022-08-09T03:01:10.684Z,5.13
2022-08-09T03:04:18.967Z,5.23
2022-08-09T03:06:14.965Z,6.60
2022-08-09T03:08:47.370Z,6.20
2022-08-09T03:11:29.672Z,5.47
2022-08-09T03:13:59.619Z,8.10
2022-08-09T03:16:25.484Z,6.10
2022-08-09T03:18:56.792Z,4.53
2022-08-09T03:21:36.527Z,6.27
2022-08-09T03:24:04.262Z,8.10
2022-08-09T03:26:34.441Z,7.77
2022-08-09T03:29:09.617Z,7.40
2022-08-09T03:31:42.349Z,6.33
2022-08-09T03:34:14.037Z,5.65
2022-08-09T03:36:58.223Z,8.08
2022-08-09T03:39:15.992Z,5.90
2022-08-09T03:41:48.752Z,10.97
2022-08-09T03:44:17.403Z,9.57
2022-08-09T03:46:49.685Z,6.13
2022-08-09T03:49:23.968Z,6.23
2022-08-09T03:52:00.141Z,8.27
2022-08-09T03:54:34.803Z,6.90
2022-08-09T03:57:18.583Z,7.40
2022-08-09T03:59:53.039Z,7.40
2022-08-09T04:02:14.243Z,5.33
2022-08-09T04:04:45.554Z,8.97
2022-08-09T04:07:16.074Z,7.97
2022-08-09T04:09:48.984Z,8.33
2022-08-09T04:12:36.393Z,6.80
2022-08-09T04:15:17.079Z,5.77
2022-08-09T04:17:42.376Z,10.80
2022-08-09T04:20:15.532Z,6.97
2022-08-09T04:22:46.634Z,8.60
2022-08-09T04:25:16.406Z,9.78
2022-08-09T04:27:46.659Z,7.67
2022-08-09T04:30:26.120Z,11.68
2022-08-09T04:32:55.602Z,11.30
2022-08-09T04:35:25.404Z,10.13
2022-08-09T04:37:56.931Z,8.07
2022-08-09T04:40:35.899Z,8.73
2022-08-09T04:42:59.595Z,12.33
2022-08-09T04:45:30.818Z,7.13
2022-08-09T04:48:02.116Z,12.78
2022-08-09T04:50:37.800Z,12.23
2022-08-09T04:53:05.950Z,9.13
2022-08-09T04:55:57.233Z,11.00
2022-08-09T04:58:12.358Z,8.43
2022-08-09T05:00:43.701Z,9.40
2022-08-09T05:03:40.169Z,8.07
2022-08-09T05:05:52.462Z,9.43
2022-08-09T05:08:17.645Z,10.48
2022-08-09T05:10:47.698Z,8.57
2022-08-09T05:13:17.501Z,7.73
2022-08-09T05:15:47.926Z,8.05
2022-08-09T05:18:39.766Z,12.47
2022-08-09T05:20:49.856Z,9.13
2022-08-09T05:23:53.883Z,10.30
2022-08-09T05:25:52.767Z,9.93
2022-08-09T05:28:22.714Z,9.68
2022-08-09T05:30:54.144Z,12.00
2022-08-09T05:33:26.442Z,11.27
2022-08-09T05:35:57.240Z,14.33
2022-08-09T05:38:28.002Z,15.60
2022-08-09T05:40:57.892Z,10.30
2022-08-09T05:43:29.110Z,10.87
2022-08-09T05:45:58.938Z,12.25
2022-08-09T05:48:33.349Z,10.87
2022-08-09T05:51:29.733Z,12.30
2022-08-09T05:53:33.319Z,9.97
2022-08-09T05:56:02.917Z,11.87
2022-08-09T05:58:33.002Z,14.10
2022-08-09T06:01:03.550Z,12.83
2022-08-09T06:03:43.919Z,9.87
2022-08-09T06:06:08.091Z,16.13
2022-08-09T06:08:37.878Z,15.93
2022-08-09T06:11:17.480Z,11.77
2022-08-09T06:13:40.101Z,11.97
2022-08-09T06:16:11.519Z,12.52
2022-08-09T06:18:42.167Z,13.00
2022-08-09T06:21:12.115Z,9.27
2022-08-09T06:23:58.382Z,10.10
2022-08-09T06:26:21.318Z,9.00
2022-08-09T06:29:00.963Z,9.77
2022-08-09T06:31:30.728Z,7.77
2022-08-09T06:33:55.511Z,6.57
2022-08-09T06:36:29.814Z,9.18
2022-08-09T06:38:58.932Z,9.50
2022-08-09T06:42:07.715Z,11.88
2022-08-09T06:44:02.574Z,9.07
2022-08-09T06:46:39.490Z,9.30
2022-08-09T06:49:04.376Z,12.90
2022-08-09T06:51:39.074Z,11.73
2022-08-09T06:54:11.816Z,9.57
2022-08-09T06:56:39.475Z,8.20
2022-08-09T07:00:52.250Z,8.93
2022-08-09T07:01:53.865Z,8.63
2022-08-09T07:04:20.133Z,9.20
2022-08-09T07:06:45.171Z,7.47
2022-08-09T07:09:57.412Z,6.40
2022-08-09T07:11:52.139Z,10.80
2022-08-09T07:14:26.393Z,8.80
2022-08-09T07:16:57.952Z,6.43
2022-08-09T07:19:23.934Z,7.67
2022-08-09T07:21:57.405Z,5.87
2022-08-09T07:24:31.467Z,5.87
2022-08-09T07:26:56.392Z,6.13
2022-08-09T07:29:27.563Z,4.63
2022-08-09T07:32:00.511Z,4.77
2022-08-09T07:34:31.684Z,4.97
2022-08-09T07:37:03.633Z,4.53
2022-08-09T07:39:41.245Z,5.17
2022-08-09T07:42:06.995Z,6.70
2022-08-09T07:44:51.965Z,7.53
2022-08-09T07:47:09.931Z,4.00
2022-08-09T07:50:04.788Z,3.80
2022-08-09T07:52:17.897Z,2.35
2022-08-09T07:54:43.578Z,8.23
2022-08-09T07:57:15.042Z,2.57
2022-08-09T07:59:50.920Z,4.13
2022-08-09T08:02:19.438Z,4.33
2022-08-09T08:04:49.012Z,4.50
2022-08-09T08:08:42.878Z,5.00
2022-08-09T08:09:55.143Z,3.37
2022-08-09T08:12:27.829Z,2.75
2022-08-09T08:14:53.350Z,3.57
2022-08-09T08:17:35.526Z,3.20
2022-08-09T08:19:54.740Z,2.30
2022-08-09T08:22:25.748Z,6.07
2022-08-09T08:24:58.115Z,2.12
2022-08-09T08:27:28.362Z,3.37
2022-08-09T08:29:59.881Z,0.97
2022-08-09T08:32:34.025Z,1.90
2022-08-09T08:35:04.601Z,1.87
2022-08-09T08:37:41.700Z,3.53
2022-08-09T08:40:08.927Z,3.20
2022-08-09T08:42:38.928Z,1.03
2022-08-09T08:45:13.809Z,2.47
2022-08-09T08:47:46.182Z,3.70
2022-08-09T08:50:18.097Z,2.65
2022-08-09T08:52:57.634Z,3.70
2022-08-09T08:55:23.482Z,1.30
2022-08-09T08:57:57.213Z,1.80
2022-08-09T09:00:34.386Z,2.35
2022-08-09T09:03:11.670Z,1.10
2022-08-09T09:05:59.925Z,1.97
2022-08-09T09:08:30.418Z,1.75
2022-08-09T09:10:44.792Z,1.93
2022-08-09T09:13:18.955Z,5.93
2022-08-09T09:15:49.270Z,2.60
2022-08-09T09:18:19.077Z,3.83
2022-08-09T09:20:48.844Z,0.83
2022-08-09T09:23:39.605Z,3.50
2022-08-09T09:26:13.355Z,2.15
2022-08-09T09:29:03.681Z,1.55
2022-08-09T09:32:06.305Z,2.17
2022-08-09T09:33:56.944Z,3.37
2022-08-09T09:36:28.185Z,1.30
2022-08-09T09:38:58.585Z,3.40
2022-08-09T09:41:32.690Z,1.47
2022-08-09T09:44:10.939Z,1.77
2022-08-09T09:46:42.062Z,2.50
2022-08-09T09:49:16.285Z,1.65
2022-08-09T09:51:47.854Z,2.30
2022-08-09T09:54:21.190Z,3.73
2022-08-09T09:58:00.231Z,1.67
2022-08-09T09:59:29.357Z,1.20
2022-08-09T10:02:01.473Z,1.27
2022-08-09T10:04:31.928Z,1.97
2022-08-09T10:07:03.427Z,4.73
2022-08-09T10:09:48.959Z,1.33
2022-08-09T10:15:50.735Z,3.30
2022-08-09T10:17:56.229Z,2.20
2022-08-09T10:20:35.916Z,0.68
2022-08-09T10:23:00.980Z,2.83
2022-08-09T10:25:34.762Z,1.67
2022-08-09T10:28:02.750Z,3.53
2022-08-09T10:33:04.690Z,2.20
2022-08-09T10:35:36.888Z,1.33
2022-08-09T10:38:33.751Z,2.63
2022-08-09T10:40:44.563Z,0.87
2022-08-09T10:43:13.617Z,1.03
2022-08-09T10:45:49.413Z,0.98
2022-08-09T10:48:36.452Z,1.80
2022-08-09T10:51:41.242Z,0.87
2022-08-09T10:54:12.218Z,2.17
2022-08-09T10:56:44.268Z,1.00
2022-08-09T10:59:30.701Z,2.43
2022-08-09T11:03:11.547Z,0.97
2022-08-09T11:04:34.867Z,3.67
2022-08-09T11:07:08.171Z,3.53
2022-08-09T11:09:47.846Z,1.97
2022-08-09T11:12:29.883Z,3.27
2022-08-09T11:15:24.088Z,1.43
2022-08-09T11:18:03.104Z,1.40
2022-08-09T11:20:42.274Z,1.85
2022-08-09T11:23:14.124Z,1.57
2022-08-09T11:25:48.626Z,0.77
2022-08-09T11:28:35.059Z,1.37
2022-08-09T11:31:36.486Z,2.43
2022-08-09T11:33:58.811Z,2.30
2022-08-09T11:36:35.941Z,2.37
2022-08-09T11:39:04.128Z,1.87
2022-08-09T11:41:37.651Z,5.15
2022-08-09T11:44:06.732Z,1.70
2022-08-09T11:46:56.867Z,1.50
2022-08-09T11:50:55.663Z,0.95
2022-08-09T11:53:58.020Z,1.60
2022-08-09T11:55:53.306Z,1.63
2022-08-09T11:58:30.394Z,1.32
2022-08-09T12:00:58.949Z,1.85
2022-08-09T12:03:55.016Z,0.95
2022-08-09T12:06:05.192Z,1.23
2022-08-09T12:08:37.112Z,2.20
2022-08-09T12:11:12.748Z,3.83
2022-08-09T12:14:08.352Z,0.67
2022-08-09T12:16:30.712Z,1.45
2022-08-09T12:18:54.323Z,1.10
2022-08-09T12:21:38.302Z,0.90
2022-08-09T12:24:09.258Z,1.93
2022-08-09T12:26:41.300Z,0.70
2022-08-09T12:29:33.043Z,1.20
2022-08-09T12:32:04.453Z,1.23
2022-08-09T12:34:36.692Z,2.17
2022-08-09T12:37:21.824Z,1.22
2022-08-09T12:39:40.410Z,1.80
2022-08-09T12:42:16.295Z,2.23
2022-08-09T12:44:52.366Z,1.50
2022-08-09T12:47:23.134Z,0.50
2022-08-09T12:50:08.184Z,1.80
2022-08-09T12:53:07.920Z,0.50
2022-08-09T12:56:14.330Z,1.03
2022-08-09T13:00:35.317Z,1.15
2022-08-09T13:03:06.363Z,0.80
2022-08-09T13:05:51.599Z,1.03
2022-08-09T13:08:40.596Z,1.07
2022-08-09T13:11:00.550Z,1.83
2022-08-09T13:14:01.041Z,1.70
2022-08-09T13:16:12.383Z,1.05
2022-08-09T13:18:44.938Z,1.27
2022-08-09T13:22:35.478Z,1.80
2022-08-09T13:24:33.078Z,1.00
2022-08-09T13:26:42.505Z,2.50
2022-08-09T13:29:17.689Z,0.40
2022-08-09T13:32:19.902Z,0.93
2022-08-09T13:34:41.724Z,0.40
2022-08-09T13:37:12.107Z,2.27
2022-08-09T13:41:54.354Z,1.23
2022-08-09T13:42:15.300Z,1.07
2022-08-09T13:44:48.621Z,1.70
2022-08-09T13:47:44.063Z,0.70
2022-08-09T13:49:56.445Z,3.03
2022-08-09T13:52:21.031Z,0.60
2022-08-09T13:54:59.879Z,0.70
2022-08-09T13:57:36.628Z,2.02
2022-08-09T13:59:54.800Z,3.65
2022-08-09T14:02:26.352Z,1.77
2022-08-09T14:05:00.106Z,2.33
2022-08-09T14:07:30.187Z,1.70
2022-08-09T14:09:58.844Z,1.35
2022-08-09T14:12:28.610Z,2.92
2022-08-09T14:14:58.660Z,1.00
2022-08-09T14:17:32.774Z,0.70
2022-08-09T14:20:01.087Z,2.37
2022-08-09T14:22:33.060Z,2.05
2022-08-09T14:25:02.985Z,1.00
2022-08-09T14:27:34.223Z,0.87
2022-08-09T14:30:37.222Z,1.50
2022-08-09T14:32:38.111Z,1.80
2022-08-09T14:35:09.022Z,0.70
2022-08-09T14:37:51.725Z,1.55
2022-08-09T14:40:11.869Z,1.87
2022-08-09T14:42:43.148Z,1.77
2022-08-09T14:46:39.643Z,2.23
2022-08-09T14:47:57.017Z,1.33
2022-08-09T14:50:17.429Z,2.10
2022-08-09T14:52:49.998Z,1.07
2022-08-09T14:55:20.279Z,0.70
2022-08-09T14:57:50.711Z,4.07
2022-08-09T15:00:20.743Z,1.07
2022-08-09T15:02:51.792Z,1.93
2022-08-09T15:05:21.873Z,3.22
2022-08-09T15:07:56.547Z,1.67
2022-08-09T15:10:24.948Z,2.47
2022-08-09T15:12:56.558Z,0.70
2022-08-09T15:15:28.451Z,1.83
2022-08-09T15:17:58.720Z,1.77
2022-08-09T15:21:54.685Z,0.77
2022-08-09T15:23:55.939Z,2.23
2022-08-09T15:25:41.344Z,1.20
2022-08-09T15:28:20.176Z,1.60
2022-08-09T15:30:56.502Z,0.78
2022-08-09T15:33:15.173Z,2.20
2022-08-09T15:35:44.955Z,2.83
2022-08-09T15:38:15.578Z,1.17
2022-08-09T15:40:47.065Z,2.77
2022-08-09T15:43:16.822Z,0.83
2022-08-09T15:45:52.047Z,1.53
2022-08-09T15:48:29.180Z,2.20
2022-08-09T15:50:49.638Z,1.17
2022-08-09T15:54:05.836Z,2.63
2022-08-09T15:56:11.054Z,2.93
2022-08-09T15:58:26.546Z,1.52
2022-08-09T16:00:54.155Z,2.33
2022-08-09T16:03:37.974Z,2.50
2022-08-09T16:06:02.936Z,1.10
2022-08-09T16:08:29.727Z,2.83
2022-08-09T16:11:02.519Z,2.17
2022-08-09T16:14:05.271Z,0.57
2022-08-09T16:16:13.518Z,0.96
2022-08-09T16:18:45.276Z,0.30
2022-08-09T16:21:09.829Z,2.10
2022-08-09T16:23:41.506Z,1.75
2022-08-09T16:26:20.123Z,2.93
2022-08-09T16:28:43.061Z,2.35
2022-08-09T16:31:15.880Z,1.27
2022-08-09T16:33:44.171Z,3.90
2022-08-09T16:36:18.382Z,3.00
2022-08-09T16:38:46.309Z,1.50
2022-08-09T16:41:20.854Z,1.17
2022-08-09T16:43:48.945Z,2.35
2022-08-09T16:46:21.284Z,2.07
2022-08-09T16:48:59.516Z,0.90
2022-08-09T16:51:22.633Z,1.90
2022-08-09T16:54:24.824Z,1.10
2022-08-09T16:56:25.303Z,3.50
2022-08-09T16:58:54.995Z,0.40
2022-08-09T17:01:26.620Z,0.57
2022-08-09T17:03:57.210Z,0.40
2022-08-09T17:06:31.414Z,1.50
2022-08-09T17:09:17.559Z,1.33
2022-08-09T17:11:40.094Z,2.23
2022-08-09T17:14:02.313Z,3.72
2022-08-09T17:16:31.956Z,1.75
2022-08-09T17:19:05.326Z,0.77
2022-08-09T17:21:35.235Z,0.57
2022-08-09T17:24:27.572Z,1.37
2022-08-09T17:26:38.652Z,0.60
2022-08-09T17:29:11.689Z,2.87
2022-08-09T17:31:40.333Z,0.83
2022-08-09T17:35:00.542Z,0.80
2022-08-09T17:36:53.438Z,1.90
2022-08-09T17:39:14.296Z,3.80
2022-08-09T17:41:44.899Z,1.00
2022-08-09T17:44:42.233Z,3.15
2022-08-09T17:46:55.379Z,1.07
2022-08-09T17:49:21.760Z,2.45
2022-08-09T17:51:52.564Z,0.47
2022-08-09T17:54:25.370Z,0.63
2022-08-09T17:56:54.464Z,0.80
2022-08-09T17:59:24.281Z,2.70
2022-08-09T18:02:06.606Z,2.85
2022-08-09T18:04:27.629Z,1.77
2022-08-09T18:06:57.322Z,0.80
2022-08-09T18:09:40.135Z,1.90
2022-08-09T18:12:15.157Z,2.55
2022-08-09T18:14:31.805Z,1.53
2022-08-09T18:17:01.571Z,1.33
2022-08-09T18:21:00.836Z,3.73
2022-08-09T18:22:02.788Z,1.93
2022-08-09T18:24:33.121Z,1.87
2022-08-09T18:27:03.621Z,1.77
2022-08-09T18:30:37.730Z,0.50
2022-08-09T18:32:07.296Z,3.87
2022-08-09T18:34:38.820Z,1.37
2022-08-09T18:37:10.413Z,1.10
2022-08-09T18:39:42.287Z,3.67
2022-08-09T18:42:12.688Z,0.67
2022-08-09T18:44:43.497Z,0.93
2022-08-09T18:47:16.652Z,1.20
2022-08-09T18:49:46.982Z,1.93
2022-08-09T18:52:18.780Z,0.60
2022-08-09T18:54:53.252Z,1.13
2022-08-09T18:57:23.152Z,0.50
2022-08-09T18:59:55.075Z,1.57
2022-08-09T19:02:30.794Z,1.05
2022-08-09T19:05:04.327Z,2.97
2022-08-09T19:07:28.713Z,0.85
2022-08-09T19:10:13.757Z,1.00
2022-08-09T19:12:33.755Z,2.93
2022-08-09T19:15:06.405Z,0.70
2022-08-09T19:17:55.043Z,1.07
2022-08-09T19:20:16.124Z,1.20
2022-08-09T19:22:53.970Z,3.70
2022-08-09T19:25:41.256Z,0.98
2022-08-09T19:27:51.036Z,1.23
2022-08-09T19:30:28.204Z,1.07
2022-08-09T19:32:53.603Z,3.83
2022-08-09T19:35:26.614Z,2.80
2022-08-09T19:37:57.713Z,2.12
2022-08-09T19:40:34.001Z,1.20
2022-08-09T19:43:01.779Z,0.47
2022-08-09T19:45:39.256Z,1.97
2022-08-09T19:48:03.345Z,1.60
2022-08-09T19:50:50.248Z,1.60
2022-08-09T19:53:04.717Z,0.90
2022-08-09T19:56:02.449Z,0.82
2022-08-09T19:58:15.862Z,2.37
2022-08-09T20:00:43.237Z,4.70
2022-08-09T20:04:07.558Z,1.55
2022-08-09T20:05:46.913Z,0.90
2022-08-09T20:08:33.391Z,1.83
2022-08-09T20:10:47.936Z,2.47
2022-08-09T20:13:21.080Z,2.67
2022-08-09T20:16:36.656Z,2.10
2022-08-09T20:18:23.098Z,2.03
2022-08-09T20:20:55.234Z,1.03
2022-08-09T20:23:39.237Z,1.35
2022-08-09T20:25:59.044Z,3.17
2022-08-09T20:28:38.746Z,1.67
2022-08-09T20:31:00.267Z,1.30
2022-08-09T20:33:39.252Z,1.33
2022-08-09T20:36:02.928Z,8.25
2022-08-09T20:38:50.436Z,2.43
2022-08-09T20:41:05.932Z,2.83
2022-08-09T20:43:35.791Z,3.03
2022-08-09T20:46:33.524Z,1.53
2022-08-09T20:48:38.914Z,3.47
2022-08-09T20:51:19.693Z,2.60
2022-08-09T20:53:40.968Z,4.03
2022-08-09T20:56:20.123Z,1.34
2022-08-09T20:58:44.166Z,1.77
2022-08-09T21:01:34.296Z,1.80
2022-08-09T21:05:48.438Z,4.20
2022-08-09T21:06:18.204Z,1.80
2022-08-09T21:08:50.727Z,5.90
2022-08-09T21:13:59.820Z,1.20
2022-08-09T21:16:30.272Z,1.27
2022-08-09T21:20:05.291Z,2.53
2022-08-09T21:21:53.799Z,4.47
2022-08-09T21:24:02.249Z,1.33
2022-08-09T21:26:32.181Z,2.10
2022-08-09T21:29:11.625Z,5.10
2022-08-09T21:31:48.749Z,2.57
2022-08-09T21:34:07.707Z,3.77
2022-08-09T21:36:38.419Z,1.37
2022-08-09T21:39:09.806Z,2.95
2022-08-09T21:42:04.871Z,2.87
2022-08-09T21:44:12.603Z,2.80
2022-08-09T21:46:44.050Z,3.90
2022-08-09T21:49:13.896Z,3.80
2022-08-09T21:51:44.113Z,1.60
2022-08-09T21:54:15.538Z,2.50
2022-08-09T21:56:54.849Z,1.30
2022-08-09T21:59:17.836Z,3.77
2022-08-09T22:02:00.823Z,4.87
2022-08-09T22:04:19.312Z,1.83
2022-08-09T22:06:59.164Z,1.50
2022-08-09T22:09:21.908Z,2.30
2022-08-09T22:12:17.702Z,1.87
2022-08-09T22:14:25.205Z,1.82
2022-08-09T22:16:56.657Z,2.50
2022-08-09T22:19:58.003Z,2.60
2022-08-09T22:21:58.053Z,3.07
2022-08-09T22:24:27.825Z,2.90
2022-08-09T22:26:57.309Z,1.10
2022-08-09T22:29:38.358Z,4.10
2022-08-09T22:31:58.538Z,1.63
2022-08-09T22:34:29.121Z,1.17
2022-08-09T22:36:59.619Z,2.23
2022-08-09T22:39:57.412Z,2.13
2022-08-09T22:42:01.479Z,1.13
2022-08-09T22:44:33.034Z,4.20
2022-08-09T22:48:14.951Z,4.35
2022-08-09T22:49:36.753Z,1.50
2022-08-09T22:52:05.850Z,1.50
2022-08-09T22:54:37.085Z,0.75
2022-08-09T22:57:06.938Z,1.77
2022-08-09T22:59:55.384Z,2.97
2022-08-09T23:02:15.152Z,1.60
2022-08-09T23:04:53.479Z,2.03
2022-08-09T23:08:22.980Z,2.17
2022-08-09T23:10:08.010Z,0.95
2022-08-09T23:12:37.831Z,2.83
2022-08-09T23:15:07.977Z,0.83
2022-08-09T23:17:37.734Z,2.70
2022-08-09T23:20:08.730Z,2.17
2022-08-09T23:22:38.503Z,1.90
2022-08-09T23:25:08.526Z,3.37
2022-08-09T23:28:14.342Z,2.45
2022-08-09T23:30:12.547Z,2.30
2022-08-09T23:32:42.027Z,1.80
2022-08-09T23:35:11.819Z,0.70
2022-08-09T23:37:41.644Z,1.20
2022-08-09T23:40:12.917Z,3.20
2022-08-09T23:42:42.693Z,5.87
2022-08-09T23:45:37.281Z,2.83
2022-08-09T23:47:44.147Z,3.10
2022-08-09T23:50:15.431Z,2.55
2022-08-09T23:52:45.199Z,4.27
2022-08-09T23:55:17.891Z,1.57
2022-08-09T23:58:07.191Z,4.57
